createdAt,value
2023-11-15T00:01:45.201Z,1.35
2023-11-15T00:04:14.210Z,2.30
2023-11-15T00:06:44.514Z,1.45
2023-11-15T00:09:14.188Z,1.52
2023-11-15T00:11:42.652Z,1.38
2023-11-15T00:14:11.173Z,1.00
2023-11-15T00:16:39.952Z,1.20
2023-11-15T00:19:09.066Z,1.45
2023-11-15T00:21:38.590Z,1.30
2023-11-15T00:24:10.020Z,1.40
2023-11-15T00:26:39.075Z,1.70
2023-11-15T00:29:08.771Z,1.30
2023-11-15T00:31:37.486Z,1.40
2023-11-15T00:34:06.541Z,1.20
2023-11-15T00:36:35.141Z,1.10
2023-11-15T00:39:10.005Z,1.67
2023-11-15T00:41:41.026Z,1.30
2023-11-15T00:44:09.489Z,1.40
2023-11-15T00:46:37.899Z,1.20
2023-11-15T00:49:06.817Z,1.55
2023-11-15T00:51:35.425Z,1.50
2023-11-15T00:54:04.882Z,2.10
2023-11-15T00:56:33.762Z,1.15
2023-11-15T00:59:04.395Z,1.30
2023-11-15T01:01:33.384Z,1.52
2023-11-15T01:04:01.975Z,1.70
2023-11-15T01:06:31.069Z,1.83
2023-11-15T01:09:00.401Z,1.48
2023-11-15T01:11:28.904Z,1.85
2023-11-15T01:13:57.977Z,1.63
2023-11-15T01:16:28.608Z,1.98
2023-11-15T01:18:57.438Z,1.98
2023-11-15T01:21:26.467Z,2.30
2023-11-15T01:23:54.991Z,1.77
2023-11-15T01:26:23.490Z,1.83
2023-11-15T01:28:52.823Z,1.80
2023-11-15T01:31:21.415Z,2.33
2023-11-15T01:33:51.544Z,2.15
2023-11-15T01:36:19.763Z,2.05
2023-11-15T01:38:48.605Z,2.20
2023-11-15T01:41:19.016Z,2.00
2023-11-15T01:43:47.841Z,1.98
2023-11-15T01:46:17.283Z,2.00
2023-11-15T01:48:46.221Z,1.95
2023-11-15T01:51:16.572Z,2.20
2023-11-15T01:53:45.637Z,2.10
2023-11-15T01:56:14.293Z,2.13
2023-11-15T01:58:43.596Z,2.05
2023-11-15T02:01:12.600Z,2.30
2023-11-15T02:03:41.300Z,2.28
2023-11-15T02:06:09.925Z,2.30
2023-11-15T02:08:40.640Z,2.22
2023-11-15T02:11:09.427Z,2.03
2023-11-15T02:13:38.416Z,2.30
2023-11-15T02:16:08.472Z,2.45
2023-11-15T02:18:37.658Z,2.83
2023-11-15T02:21:07.030Z,2.22
2023-11-15T02:23:43.804Z,1.92
2023-11-15T02:26:12.795Z,2.00
2023-11-15T02:28:41.466Z,1.67
2023-11-15T02:31:13.360Z,2.03
2023-11-15T02:33:41.873Z,1.48
2023-11-15T02:36:11.325Z,1.80
2023-11-15T02:38:41.922Z,0.85
2023-11-15T02:41:12.172Z,0.90
2023-11-15T02:43:40.747Z,1.02
2023-11-15T02:46:09.309Z,1.17
2023-11-15T02:48:38.334Z,1.10
2023-11-15T02:51:07.828Z,1.20
2023-11-15T02:53:36.831Z,0.80
2023-11-15T02:56:08.359Z,0.70
2023-11-15T02:58:37.138Z,0.98
2023-11-15T03:01:08.266Z,0.90
2023-11-15T03:03:37.981Z,0.85
2023-11-15T03:06:07.705Z,0.73
2023-11-15T03:08:38.212Z,0.95
2023-11-15T03:11:10.039Z,1.00
2023-11-15T03:13:38.866Z,1.05
2023-11-15T03:16:08.650Z,1.00
2023-11-15T03:18:37.682Z,1.00
2023-11-15T03:21:07.601Z,1.25
2023-11-15T03:23:36.606Z,1.52
2023-11-15T03:26:05.533Z,1.20
2023-11-15T03:28:36.153Z,1.30
2023-11-15T03:31:07.557Z,1.30
2023-11-15T03:33:35.999Z,1.02
2023-11-15T03:36:03.557Z,1.23
2023-11-15T03:38:32.262Z,0.88
2023-11-15T03:41:01.827Z,1.02
2023-11-15T03:43:30.674Z,0.82
2023-11-15T03:46:00.835Z,1.10
2023-11-15T03:48:29.838Z,0.85
2023-11-15T03:50:58.195Z,1.00
2023-11-15T03:53:26.993Z,0.80
2023-11-15T03:55:55.984Z,0.60
2023-11-15T03:58:24.478Z,1.23
2023-11-15T04:00:53.601Z,1.00
2023-11-15T04:03:27.562Z,1.00
2023-11-15T04:05:56.754Z,0.90
2023-11-15T04:08:25.049Z,1.15
2023-11-15T04:10:53.674Z,0.82
2023-11-15T04:13:22.898Z,1.17
2023-11-15T04:15:51.392Z,1.00
2023-11-15T04:18:20.118Z,0.93
2023-11-15T04:20:50.134Z,1.02
2023-11-15T04:23:18.628Z,1.20
2023-11-15T04:25:48.607Z,1.20
2023-11-15T04:28:17.368Z,2.38
2023-11-15T04:30:47.881Z,1.30
2023-11-15T04:33:16.746Z,1.15
2023-11-15T04:35:45.670Z,1.20
2023-11-15T04:38:15.499Z,1.35
2023-11-15T04:40:44.080Z,1.13
2023-11-15T04:43:14.826Z,1.42
2023-11-15T04:45:43.535Z,1.20
2023-11-15T04:48:12.546Z,1.33
2023-11-15T04:50:41.292Z,0.90
2023-11-15T04:53:10.283Z,1.13
2023-11-15T04:55:40.357Z,1.20
2023-11-15T04:58:09.157Z,1.20
2023-11-15T05:00:38.569Z,1.20
2023-11-15T05:03:07.096Z,1.33
2023-11-15T05:05:35.602Z,1.33
2023-11-15T05:08:05.251Z,1.45
2023-11-15T05:10:34.424Z,1.40
2023-11-15T05:13:05.564Z,1.10
2023-11-15T05:15:34.577Z,1.30
2023-11-15T05:18:04.095Z,1.20
2023-11-15T05:20:32.679Z,1.10
2023-11-15T05:23:01.430Z,1.40
2023-11-15T05:25:30.415Z,1.20
2023-11-15T05:27:58.850Z,1.38
2023-11-15T05:30:30.291Z,1.35
2023-11-15T05:32:58.730Z,1.20
2023-11-15T05:35:27.373Z,1.33
2023-11-15T05:37:56.916Z,1.30
2023-11-15T05:40:25.541Z,1.48
2023-11-15T05:42:54.244Z,1.50
2023-11-15T05:45:29.546Z,1.40
2023-11-15T05:48:00.161Z,1.45
2023-11-15T05:50:29.209Z,1.27
2023-11-15T05:52:57.429Z,1.38
2023-11-15T05:55:26.062Z,1.38
2023-11-15T05:57:55.196Z,1.55
2023-11-15T06:00:24.673Z,1.83
2023-11-15T06:02:54.361Z,1.30
2023-11-15T06:05:24.089Z,1.33
2023-11-15T06:07:52.870Z,1.63
2023-11-15T06:10:21.160Z,1.55
2023-11-15T06:12:50.310Z,1.27
2023-11-15T06:15:20.357Z,1.30
2023-11-15T06:17:50.032Z,1.52
2023-11-15T06:20:18.688Z,1.48
2023-11-15T06:22:48.736Z,1.27
2023-11-15T06:25:20.265Z,1.55
2023-11-15T06:27:48.692Z,1.33
2023-11-15T06:30:18.871Z,1.65
2023-11-15T06:32:47.903Z,1.33
2023-11-15T06:35:20.224Z,2.10
2023-11-15T06:37:51.007Z,1.90
2023-11-15T06:40:19.874Z,1.35
2023-11-15T06:42:49.323Z,1.38
2023-11-15T06:45:18.201Z,1.33
2023-11-15T06:47:47.301Z,1.48
2023-11-15T06:50:17.624Z,1.25
2023-11-15T06:52:47.290Z,1.40
2023-11-15T06:55:20.125Z,1.60
2023-11-15T06:57:50.027Z,1.10
2023-11-15T07:00:19.662Z,1.33
2023-11-15T07:02:48.467Z,1.40
2023-11-15T07:05:17.884Z,1.20
2023-11-15T07:07:49.095Z,1.50
2023-11-15T07:10:19.931Z,1.23
2023-11-15T07:12:48.845Z,1.17
2023-11-15T07:15:19.402Z,1.52
2023-11-15T07:17:47.770Z,1.50
2023-11-15T07:20:22.016Z,1.23
2023-11-15T07:22:50.714Z,1.48
2023-11-15T07:25:24.061Z,1.80
2023-11-15T07:27:57.595Z,1.40
2023-11-15T07:30:28.566Z,1.60
2023-11-15T07:32:57.127Z,1.90
2023-11-15T07:35:27.295Z,1.45
2023-11-15T07:37:56.312Z,1.60
2023-11-15T07:40:25.817Z,1.38
2023-11-15T07:42:54.038Z,1.35
2023-11-15T07:45:22.202Z,1.30
2023-11-15T07:47:50.583Z,1.75
2023-11-15T07:50:18.994Z,1.42
2023-11-15T07:52:47.914Z,1.05
2023-11-15T07:55:16.614Z,1.30
2023-11-15T07:57:46.240Z,1.50
2023-11-15T08:00:15.939Z,1.55
2023-11-15T08:02:46.262Z,1.58
2023-11-15T08:05:14.802Z,1.60
2023-11-15T08:07:43.245Z,2.40
2023-11-15T08:10:14.797Z,2.10
2023-11-15T08:12:47.245Z,2.03
2023-11-15T08:15:16.229Z,2.00
2023-11-15T08:17:45.088Z,1.80
2023-11-15T08:20:14.109Z,1.63
2023-11-15T08:22:42.485Z,1.45
2023-11-15T08:25:11.795Z,1.38
2023-11-15T08:27:41.861Z,1.17
2023-11-15T08:30:18.647Z,1.48
2023-11-15T08:32:47.329Z,1.60
2023-11-15T08:35:17.032Z,1.30
2023-11-15T08:37:45.505Z,1.30
2023-11-15T08:40:26.143Z,1.40
2023-11-15T08:45:28.799Z,1.30
2023-11-15T08:47:59.376Z,1.38
2023-11-15T08:50:30.838Z,1.40
2023-11-15T08:53:00.306Z,1.38
2023-11-15T08:55:29.881Z,1.30
2023-11-15T08:57:58.795Z,1.50
2023-11-15T09:00:30.446Z,1.48
2023-11-15T09:02:59.007Z,1.40
2023-11-15T09:05:27.790Z,1.00
2023-11-15T09:07:56.521Z,1.15
2023-11-15T09:10:28.309Z,1.30
2023-11-15T09:12:58.331Z,1.30
2023-11-15T09:15:32.065Z,1.20
2023-11-15T09:18:01.744Z,1.08
2023-11-15T09:20:30.409Z,1.20
2023-11-15T09:22:59.475Z,1.30
2023-11-15T09:25:31.494Z,1.60
2023-11-15T09:28:04.048Z,1.55
2023-11-15T09:30:34.469Z,1.42
2023-11-15T09:33:07.564Z,1.20
2023-11-15T09:35:40.108Z,1.30
2023-11-15T09:38:12.413Z,1.25
2023-11-15T09:40:40.851Z,1.40
2023-11-15T09:43:12.033Z,1.40
2023-11-15T09:45:44.046Z,1.38
2023-11-15T09:48:14.278Z,1.40
2023-11-15T09:50:45.392Z,1.15
2023-11-15T09:53:14.479Z,1.48
2023-11-15T09:55:43.399Z,1.10
2023-11-15T09:58:13.486Z,1.30
2023-11-15T10:00:43.733Z,0.95
2023-11-15T10:03:12.463Z,1.30
2023-11-15T10:05:44.139Z,1.40
2023-11-15T10:08:15.002Z,0.90
2023-11-15T10:10:44.869Z,1.10
2023-11-15T10:13:15.450Z,0.90
2023-11-15T10:15:48.076Z,1.10
2023-11-15T10:38:00.248Z,1.10
2023-11-15T10:40:31.315Z,1.30
2023-11-15T10:43:03.216Z,1.15
2023-11-15T10:45:32.558Z,1.15
2023-11-15T10:48:06.003Z,0.90
2023-11-15T10:50:35.421Z,0.90
2023-11-15T10:53:06.575Z,0.93
2023-11-15T10:55:35.103Z,0.77
2023-11-15T11:13:23.369Z,0.90
2023-11-15T11:15:53.121Z,0.90
2023-11-15T11:18:23.535Z,1.08
2023-11-15T11:21:01.467Z,1.00
2023-11-15T11:23:34.575Z,0.98
2023-11-15T11:26:43.647Z,0.90
2023-11-15T11:29:14.245Z,1.30
2023-11-15T11:31:42.517Z,1.20
2023-11-15T11:34:12.099Z,1.05
2023-11-15T11:36:51.002Z,0.88
2023-11-15T11:39:24.002Z,0.80
2023-11-15T11:41:52.963Z,0.90
2023-11-15T11:44:22.728Z,1.13
2023-11-15T11:47:04.089Z,1.05
2023-11-15T11:49:46.867Z,0.93
2023-11-15T11:52:18.287Z,0.93
2023-11-15T11:54:47.969Z,1.00
2023-11-15T11:57:21.902Z,1.00
2023-11-15T12:00:14.912Z,1.13
2023-11-15T12:02:47.376Z,1.05
2023-11-15T12:05:22.910Z,1.10
2023-11-15T12:07:52.474Z,1.00
2023-11-15T12:10:21.107Z,1.15
2023-11-15T12:12:56.712Z,1.15
2023-11-15T12:15:28.826Z,0.90
2023-11-15T12:17:58.468Z,1.05
2023-11-15T12:20:30.863Z,0.90
2023-11-15T12:23:07.723Z,1.05
2023-11-15T12:25:44.560Z,0.82
2023-11-15T12:28:13.821Z,0.90
2023-11-15T12:30:44.824Z,0.95
2023-11-15T12:33:13.898Z,0.77
2023-11-15T12:35:43.353Z,0.98
2023-11-15T12:38:15.491Z,0.85
2023-11-15T12:40:45.963Z,0.95
2023-11-15T12:43:22.960Z,0.80
2023-11-15T12:45:53.436Z,1.02
2023-11-15T12:48:22.110Z,1.00
2023-11-15T12:50:50.895Z,1.20
2023-11-15T12:53:20.184Z,1.10
2023-11-15T12:55:51.982Z,0.95
2023-11-15T12:58:21.999Z,1.20
2023-11-15T13:01:01.294Z,1.15
2023-11-15T13:03:32.237Z,1.17
2023-11-15T13:06:12.486Z,1.15
2023-11-15T13:08:42.416Z,1.50
2023-11-15T13:11:11.305Z,1.65
2023-11-15T13:13:40.450Z,1.38
2023-11-15T13:16:10.753Z,1.40
2023-11-15T13:18:40.539Z,1.33
2023-11-15T13:21:12.869Z,1.58
2023-11-15T13:23:41.664Z,1.25
2023-11-15T13:26:11.933Z,1.20
2023-11-15T13:28:41.066Z,1.30
2023-11-15T13:31:12.608Z,1.10
2023-11-15T13:33:46.546Z,1.10
2023-11-15T13:36:17.521Z,1.10
2023-11-15T13:38:46.898Z,1.10
2023-11-15T13:41:18.705Z,1.23
2023-11-15T13:43:48.924Z,1.15
2023-11-15T13:46:20.161Z,1.10
2023-11-15T13:48:48.446Z,1.02
2023-11-15T13:51:19.533Z,1.25
2023-11-15T13:53:48.019Z,1.40
2023-11-15T13:56:16.708Z,1.23
2023-11-15T13:58:45.293Z,1.40
2023-11-15T14:01:13.579Z,1.60
2023-11-15T14:03:45.082Z,1.50
2023-11-15T14:06:14.145Z,1.48
2023-11-15T14:08:52.060Z,1.20
2023-11-15T14:11:29.117Z,1.15
2023-11-15T14:13:58.796Z,1.30
2023-11-15T14:16:27.780Z,1.20
2023-11-15T14:18:58.000Z,1.35
2023-11-15T14:21:27.740Z,1.30
2023-11-15T14:23:57.719Z,1.42
2023-11-15T14:26:27.116Z,1.27
2023-11-15T14:28:56.325Z,1.27
2023-11-15T14:31:25.056Z,1.15
2023-11-15T14:33:54.002Z,1.10
2023-11-15T14:36:27.457Z,1.55
2023-11-15T14:38:56.121Z,1.17
2023-11-15T14:41:24.646Z,1.10
2023-11-15T14:43:53.086Z,1.20
2023-11-15T14:46:26.749Z,1.55
2023-11-15T14:48:58.494Z,1.20
2023-11-15T14:51:29.555Z,0.90
2023-11-15T14:54:00.122Z,0.98
2023-11-15T14:56:29.488Z,1.10
2023-11-15T14:59:00.538Z,1.10
2023-11-15T15:01:29.757Z,1.20
2023-11-15T15:04:19.805Z,1.13
2023-11-15T15:06:49.621Z,1.50
2023-11-15T15:09:19.433Z,1.05
2023-11-15T15:11:48.312Z,1.13
2023-11-15T15:14:18.534Z,1.10
2023-11-15T15:16:48.170Z,1.00
2023-11-15T15:19:16.549Z,0.98
2023-11-15T15:21:46.137Z,1.00
2023-11-15T15:24:15.806Z,0.80
2023-11-15T15:26:44.067Z,1.50
2023-11-15T15:29:22.199Z,0.80
2023-11-15T15:34:24.992Z,0.93
2023-11-15T15:36:53.262Z,0.93
2023-11-15T15:39:23.744Z,1.20
2023-11-15T15:41:53.719Z,1.17
2023-11-15T15:44:27.846Z,1.10
2023-11-15T15:46:56.653Z,1.00
2023-11-15T15:49:25.187Z,1.00
2023-11-15T15:51:57.731Z,1.60
2023-11-15T15:54:28.377Z,1.10
2023-11-15T15:56:58.422Z,1.17
2023-11-15T15:59:33.787Z,1.30
2023-11-15T16:02:03.337Z,1.42
2023-11-15T16:04:34.704Z,1.40
2023-11-15T16:07:03.293Z,1.52
2023-11-15T16:09:38.173Z,1.40
2023-11-15T16:12:08.216Z,1.55
2023-11-15T16:14:37.175Z,1.20
2023-11-15T16:17:06.667Z,1.70
2023-11-15T16:19:39.328Z,2.35
2023-11-15T16:22:09.604Z,2.20
2023-11-15T16:24:41.335Z,2.53
2023-11-15T16:27:10.835Z,2.55
2023-11-15T16:29:43.668Z,2.60
2023-11-15T16:32:13.432Z,3.35
2023-11-15T16:34:42.191Z,2.67
2023-11-15T16:37:10.580Z,2.15
2023-11-15T16:39:40.615Z,2.50
2023-11-15T16:42:09.523Z,2.13
2023-11-15T16:44:38.105Z,1.85
2023-11-15T16:47:07.263Z,2.05
2023-11-15T16:49:35.844Z,1.80
2023-11-15T16:52:04.386Z,2.35
2023-11-15T16:54:36.426Z,2.63
2023-11-15T16:57:08.251Z,1.95
2023-11-15T16:59:37.156Z,2.20
2023-11-15T17:02:07.791Z,1.90
2023-11-15T17:04:36.943Z,2.00
2023-11-15T17:07:08.015Z,2.05
2023-11-15T17:09:44.298Z,1.98
2023-11-15T17:12:14.817Z,1.77
2023-11-15T17:17:43.646Z,1.90
2023-11-15T17:20:15.065Z,1.95
2023-11-15T17:22:44.286Z,2.03
2023-11-15T17:25:19.785Z,1.63
2023-11-15T17:27:53.307Z,1.60
2023-11-15T17:30:23.748Z,1.73
2023-11-15T17:32:52.183Z,1.63
2023-11-15T17:35:20.845Z,2.05
2023-11-15T17:37:52.229Z,1.85
2023-11-15T17:40:21.512Z,1.65
2023-11-15T17:42:52.643Z,2.00
2023-11-15T17:45:21.042Z,1.80
2023-11-15T17:47:49.360Z,2.22
2023-11-15T17:50:19.463Z,2.00
2023-11-15T17:52:50.187Z,1.70
2023-11-15T17:55:18.640Z,1.45
2023-11-15T17:57:47.835Z,1.55
2023-11-15T18:00:18.546Z,1.30
2023-11-15T18:02:47.241Z,1.48
2023-11-15T18:05:16.013Z,1.95
2023-11-15T18:07:44.693Z,1.90
2023-11-15T18:10:15.332Z,1.80
2023-11-15T18:12:45.093Z,2.00
2023-11-15T18:15:15.773Z,2.42
2023-11-15T18:17:45.550Z,2.60
2023-11-15T18:20:14.580Z,2.80
2023-11-15T18:22:43.105Z,2.60
2023-11-15T18:25:13.236Z,2.65
2023-11-15T18:27:45.142Z,2.30
2023-11-15T18:30:15.193Z,2.80
2023-11-15T18:32:50.837Z,3.08
2023-11-15T18:35:20.023Z,3.05
2023-11-15T18:37:49.298Z,3.00
2023-11-15T18:40:22.588Z,2.50
2023-11-15T18:42:52.683Z,2.45
2023-11-15T18:45:21.502Z,2.78
2023-11-15T18:47:52.268Z,2.97
2023-11-15T18:50:21.760Z,2.70
2023-11-15T18:52:50.538Z,2.80
2023-11-15T18:55:31.663Z,2.38
2023-11-15T18:57:59.845Z,2.90
2023-11-15T19:00:28.170Z,2.90
2023-11-15T19:03:02.295Z,2.28
2023-11-15T19:05:33.158Z,2.60
2023-11-15T19:08:01.905Z,2.70
2023-11-15T19:10:33.895Z,2.58
2023-11-15T19:13:02.249Z,2.80
2023-11-15T19:15:31.104Z,2.90
2023-11-15T19:18:01.720Z,2.58
2023-11-15T19:20:31.614Z,2.78
2023-11-15T19:22:59.946Z,2.60
2023-11-15T19:25:28.179Z,2.60
2023-11-15T19:27:58.949Z,2.70
2023-11-15T19:30:27.341Z,2.67
2023-11-15T19:32:55.803Z,1.63
2023-11-15T19:35:27.271Z,2.90
2023-11-15T19:37:56.011Z,2.60
2023-11-15T19:40:24.466Z,2.88
2023-11-15T19:42:52.886Z,3.08
2023-11-15T19:45:22.554Z,2.95
2023-11-15T19:47:51.122Z,3.55
2023-11-15T19:50:19.646Z,3.10
2023-11-15T19:52:49.604Z,3.10
2023-11-15T19:55:19.902Z,3.40
2023-11-15T19:57:48.279Z,3.70
2023-11-15T20:00:17.945Z,3.63
2023-11-15T20:02:48.310Z,3.50
2023-11-15T20:05:18.309Z,3.10
2023-11-15T20:07:46.780Z,3.35
2023-11-15T20:10:16.355Z,2.72
2023-11-15T20:12:45.097Z,4.13
2023-11-15T20:15:14.425Z,3.38
2023-11-15T20:17:43.445Z,3.25
2023-11-15T20:20:15.505Z,3.53
2023-11-15T20:22:50.701Z,3.80
2023-11-15T20:25:22.894Z,3.10
2023-11-15T20:27:51.232Z,2.47
2023-11-15T20:30:22.751Z,3.10
2023-11-15T20:32:55.473Z,3.20
2023-11-15T20:35:25.145Z,3.75
2023-11-15T20:37:53.518Z,3.30
2023-11-15T20:40:23.470Z,3.08
2023-11-15T20:42:51.919Z,2.95
2023-11-15T20:45:20.249Z,2.88
2023-11-15T20:47:48.736Z,3.08
2023-11-15T20:50:17.125Z,3.40
2023-11-15T20:52:45.682Z,3.33
2023-11-15T20:55:15.260Z,3.38
2023-11-15T20:57:45.040Z,2.90
2023-11-15T21:00:14.491Z,3.33
2023-11-15T21:02:43.009Z,2.20
2023-11-15T21:05:12.986Z,3.63
2023-11-15T21:07:42.072Z,3.03
2023-11-15T21:10:11.057Z,2.90
2023-11-15T21:12:40.282Z,3.60
2023-11-15T21:15:11.995Z,3.38
2023-11-15T21:17:40.422Z,2.22
2023-11-15T21:20:13.458Z,3.17
2023-11-15T21:25:13.927Z,2.90
2023-11-15T21:27:42.982Z,2.45
2023-11-15T21:30:14.324Z,2.45
2023-11-15T21:32:43.516Z,3.00
2023-11-15T21:35:13.176Z,2.40
2023-11-15T21:37:43.115Z,2.92
2023-11-15T21:40:16.074Z,2.60
2023-11-15T21:42:46.572Z,2.83
2023-11-15T21:45:17.842Z,2.90
2023-11-15T21:47:47.114Z,2.50
2023-11-15T21:50:16.961Z,2.70
2023-11-15T21:52:45.645Z,2.65
2023-11-15T21:55:14.037Z,2.83
2023-11-15T21:57:42.386Z,2.55
2023-11-15T22:00:14.789Z,2.70
2023-11-15T22:02:44.663Z,3.13
2023-11-15T22:05:13.001Z,2.95
2023-11-15T22:07:41.918Z,2.70
2023-11-15T22:10:11.498Z,2.47
2023-11-15T22:12:39.744Z,2.92
2023-11-15T22:15:10.528Z,2.72
2023-11-15T22:17:40.895Z,2.67
2023-11-15T22:20:12.498Z,2.75
2023-11-15T22:22:40.858Z,3.03
2023-11-15T22:25:09.237Z,2.90
2023-11-15T22:27:37.920Z,2.47
2023-11-15T22:30:08.197Z,2.45
2023-11-15T22:32:37.039Z,1.95
2023-11-15T22:35:05.756Z,3.22
2023-11-15T22:37:35.544Z,2.63
2023-11-15T22:40:03.810Z,2.80
2023-11-15T22:42:32.065Z,3.15
2023-11-15T22:44:59.396Z,2.60
2023-11-15T22:47:27.889Z,2.58
2023-11-15T22:49:56.137Z,1.95
2023-11-15T22:52:24.338Z,2.75
2023-11-15T22:54:53.989Z,2.85
2023-11-15T22:57:22.273Z,2.55
2023-11-15T22:59:52.573Z,2.97
2023-11-15T23:02:22.029Z,2.85
2023-11-15T23:04:50.831Z,2.38
2023-11-15T23:07:22.051Z,2.33
2023-11-15T23:09:51.579Z,2.92
2023-11-15T23:12:24.498Z,3.40
2023-11-15T23:17:22.770Z,3.15
2023-11-15T23:19:51.938Z,3.08
2023-11-15T23:22:20.393Z,1.85
2023-11-15T23:24:48.702Z,3.00
2023-11-15T23:27:17.683Z,3.33
2023-11-15T23:29:48.863Z,3.38
2023-11-15T23:32:17.902Z,3.25
2023-11-15T23:34:46.528Z,2.30
2023-11-15T23:37:15.017Z,2.92
2023-11-15T23:39:43.357Z,3.42
2023-11-15T23:42:13.054Z,2.92
2023-11-15T23:44:42.754Z,3.38
2023-11-15T23:47:13.277Z,3.50
2023-11-15T23:49:41.752Z,3.42
2023-11-15T23:52:11.057Z,3.45
2023-11-15T23:54:39.510Z,3.97
2023-11-15T23:57:09.630Z,4.00
2023-11-15T23:59:38.095Z,3.78
